Time;durP1;ratioP1;P1;durP2;ratioP2;P2;SDS_P1;SDS_P2;PMS_P1;PMS_P2;Temp;Humidity;BMP_temperature;BMP_pressure;BME280_temperature;BME280_humidity;BME280_pressure;Samples;Min_cycle;Max_cycle;Signal;HPM_P1;HPM_P2
2023/01/08 00:01:24;;;;;;;10.30;8.10;;;20.90;44.70;;;;;;5029867;28;20345;-50
2023/01/08 00:03:49;;;;;;;9.85;8.32;;;20.90;44.70;;;;;;5032888;28;20034;-49
2023/01/08 00:06:17;;;;;;;8.73;7.28;;;20.90;44.60;;;;;;5012037;28;20060;-52
2023/01/08 00:08:44;;;;;;;9.27;8.15;;;20.90;44.60;;;;;;5011048;28;20087;-53
2023/01/08 00:11:11;;;;;;;8.15;7.00;;;20.90;44.60;;;;;;5027404;28;20094;-53
2023/01/08 00:13:37;;;;;;;7.95;6.75;;;20.90;44.60;;;;;;5029758;28;20025;-52
2023/01/08 00:16:09;;;;;;;8.23;7.25;;;20.90;44.60;;;;;;5012424;28;20050;-50
2023/01/08 00:18:35;;;;;;;8.82;7.18;;;20.90;44.60;;;;;;5028170;28;20353;-50
2023/01/08 00:21:01;;;;;;;7.90;6.70;;;20.80;44.50;;;;;;5028564;28;20037;-51
2023/01/08 00:23:27;;;;;;;7.35;5.88;;;20.80;44.50;;;;;;5029550;28;20033;-52
2023/01/08 00:25:53;;;;;;;9.35;6.65;;;20.80;44.50;;;;;;5021400;28;21744;-49
2023/01/08 00:28:19;;;;;;;7.32;5.40;;;20.80;44.50;;;;;;5011570;28;20021;-52
2023/01/08 00:30:46;;;;;;;8.00;6.10;;;20.80;44.50;;;;;;5026733;28;20083;-52
2023/01/08 00:33:13;;;;;;;8.13;6.07;;;20.80;44.50;;;;;;5031072;28;20132;-52
2023/01/08 00:35:40;;;;;;;6.28;5.53;;;20.80;44.50;;;;;;5029777;28;20030;-51
2023/01/08 00:38:06;;;;;;;6.88;6.03;;;20.80;44.50;;;;;;5029887;28;20098;-52
2023/01/08 00:40:34;;;;;;;6.40;5.28;;;20.80;44.40;;;;;;5030351;28;20038;-49
2023/01/08 00:43:00;;;;;;;7.60;5.10;;;20.80;44.40;;;;;;5026221;28;20343;-52
2023/01/08 00:45:25;;;;;;;5.88;5.10;;;20.80;44.30;;;;;;5012241;28;20441;-49
2023/01/08 00:47:51;;;;;;;5.70;4.88;;;20.80;44.40;;;;;;5027563;28;20038;-51
2023/01/08 00:50:17;;;;;;;6.25;4.65;;;20.80;44.40;;;;;;5030256;28;20030;-54
2023/01/08 00:52:43;;;;;;;6.03;4.97;;;20.70;44.40;;;;;;5029346;28;20025;-55
2023/01/08 00:55:09;;;;;;;6.13;4.88;;;20.70;44.40;;;;;;5030301;28;20021;-50
2023/01/08 00:57:36;;;;;;;6.35;4.75;;;20.80;44.50;;;;;;5029315;28;20438;-49
2023/01/08 01:00:05;;;;;;;5.53;4.50;;;20.70;44.40;;;;;;5029284;28;20050;-56
2023/01/08 01:02:31;;;;;;;5.28;4.35;;;20.70;44.50;;;;;;5027305;28;20037;-53
2023/01/08 01:04:56;;;;;;;5.80;4.70;;;20.70;44.40;;;;;;5011430;28;20026;-55
2023/01/08 01:07:22;;;;;;;5.75;4.38;;;20.70;44.40;;;;;;5019165;28;20018;-55
2023/01/08 01:09:48;;;;;;;4.55;3.97;;;20.70;44.40;;;;;;5024020;28;20037;-53
2023/01/08 01:12:14;;;;;;;5.35;4.22;;;20.70;44.40;;;;;;5031908;28;20036;-53
2023/01/08 01:14:40;;;;;;;5.28;4.13;;;20.70;44.40;;;;;;5033313;28;20129;-54
2023/01/08 01:17:06;;;;;;;5.18;4.00;;;20.70;44.40;;;;;;5031507;28;20117;-52
2023/01/08 01:19:31;;;;;;;5.35;3.88;;;20.70;44.40;;;;;;5035028;28;20033;-53
2023/01/08 01:21:58;;;;;;;4.90;3.60;;;20.70;44.40;;;;;;5032883;28;20100;-51
2023/01/08 01:24:24;;;;;;;4.68;3.83;;;20.70;44.30;;;;;;5031939;28;20648;-55
2023/01/08 01:26:51;;;;;;;6.72;4.30;;;20.70;44.40;;;;;;5031487;28;20043;-49
2023/01/08 01:29:16;;;;;;;5.05;3.90;;;20.70;44.40;;;;;;5033177;28;20500;-51
2023/01/08 01:31:42;;;;;;;4.38;3.53;;;20.70;44.40;;;;;;5030705;28;20116;-52
2023/01/08 01:34:09;;;;;;;4.00;3.10;;;20.60;44.30;;;;;;5031177;28;20021;-52
2023/01/08 01:36:36;;;;;;;3.85;3.20;;;20.60;44.30;;;;;;5032467;28;20030;-51
2023/01/08 01:39:02;;;;;;;4.70;3.55;;;20.70;44.30;;;;;;5031840;28;20112;-54
2023/01/08 01:41:30;;;;;;;4.53;3.42;;;20.70;44.30;;;;;;5033705;28;20112;-53
2023/01/08 01:44:16;;;;;;;5.85;3.50;;;20.60;44.30;;;;;;5032179;28;20120;-52
2023/01/08 01:46:42;;;;;;;4.20;3.10;;;20.60;44.30;;;;;;5032113;28;20032;-54
2023/01/08 01:49:13;;;;;;;4.57;3.15;;;20.60;44.30;;;;;;5031031;28;20026;-53
2023/01/08 01:51:45;;;;;;;3.40;2.50;;;20.60;44.30;;;;;;5030176;28;20018;-47
2023/01/08 01:54:12;;;;;;;3.97;2.97;;;20.60;44.30;;;;;;5031193;28;20116;-54
2023/01/08 01:56:38;;;;;;;4.53;2.80;;;20.60;44.30;;;;;;5032503;28;20033;-49
2023/01/08 01:59:04;;;;;;;3.83;2.90;;;20.60;44.30;;;;;;5033502;28;20025;-51
2023/01/08 02:01:30;;;;;;;3.55;2.80;;;20.60;44.40;;;;;;5033190;28;20025;-52
2023/01/08 02:03:57;;;;;;;3.95;2.70;;;20.60;44.40;;;;;;5031407;28;20115;-48
2023/01/08 02:06:29;;;;;;;4.40;2.80;;;20.60;44.40;;;;;;5032534;28;20168;-50
2023/01/08 02:09:16;;;;;;;9.30;2.50;;;20.60;44.40;;;;;;5026517;28;20044;-48
2023/01/08 02:14:41;;;;;;;4.05;2.60;;;20.60;44.30;;;;;;5028852;28;20054;-49
2023/01/08 02:17:12;;;;;;;3.42;2.20;;;20.60;44.30;;;;;;5027578;28;20051;-51
2023/01/08 02:19:42;;;;;;;3.60;2.60;;;20.50;44.30;;;;;;5032471;28;20483;-54
2023/01/08 02:22:20;;;;;;;4.22;2.85;;;20.60;44.30;;;;;;5031929;28;20096;-53
2023/01/08 02:25:16;;;;;;;3.70;2.38;;;20.50;44.30;;;;;;5029915;28;20314;-49
2023/01/08 02:27:46;;;;;;;3.88;2.47;;;20.50;44.30;;;;;;5031293;28;20044;-54
2023/01/08 02:30:12;;;;;;;3.30;2.45;;;20.50;44.30;;;;;;5030267;28;20124;-50
2023/01/08 02:32:39;;;;;;;3.38;2.28;;;20.50;44.30;;;;;;5032476;28;20101;-48
2023/01/08 02:35:06;;;;;;;3.83;2.30;;;20.50;44.30;;;;;;5028547;28;20033;-54
2023/01/08 02:37:33;;;;;;;2.78;1.90;;;20.50;44.30;;;;;;5029381;28;20037;-48
2023/01/08 02:40:28;;;;;;;3.78;2.28;;;20.50;44.30;;;;;;5031081;28;20037;-52
2023/01/08 02:43:08;;;;;;;3.13;1.92;;;20.50;44.30;;;;;;5031360;28;20077;-52
2023/01/08 02:45:49;;;;;;;5.07;2.50;;;20.50;44.30;;;;;;5029368;28;20437;-49
2023/01/08 02:48:38;;;;;;;2.72;1.90;;;20.50;44.30;;;;;;5030866;28;20025;-49
2023/01/08 02:51:16;;;;;;;2.75;1.90;;;20.50;44.30;;;;;;5030000;28;20030;-53
2023/01/08 02:53:45;;;;;;;2.67;1.88;;;20.50;44.30;;;;;;5029316;28;20036;-51
2023/01/08 02:56:15;;;;;;;2.95;2.10;;;20.50;44.30;;;;;;5030824;28;20484;-52
2023/01/08 02:58:42;;;;;;;3.15;2.08;;;20.50;44.40;;;;;;5030692;28;20048;-54
2023/01/08 03:01:10;;;;;;;3.30;2.03;;;20.50;44.40;;;;;;5027813;28;20037;-50
2023/01/08 03:03:39;;;;;;;2.67;2.00;;;20.40;44.40;;;;;;5031761;28;20022;-51
2023/01/08 03:06:09;;;;;;;3.72;1.90;;;20.50;44.40;;;;;;5028844;28;20040;-52
2023/01/08 03:08:39;;;;;;;2.72;1.65;;;20.40;44.40;;;;;;5027251;28;20023;-52
2023/01/08 03:11:08;;;;;;;3.53;1.80;;;20.50;44.40;;;;;;5031212;28;20026;-51
2023/01/08 03:13:34;;;;;;;2.67;1.73;;;20.40;44.40;;;;;;5029973;28;20030;-48
2023/01/08 03:16:04;;;;;;;2.80;1.95;;;20.40;44.30;;;;;;5028218;28;20056;-52
2023/01/08 03:18:40;;;;;;;2.50;1.70;;;20.40;44.30;;;;;;5030692;28;20026;-48
2023/01/08 03:21:06;;;;;;;2.47;1.52;;;20.40;44.30;;;;;;5029445;28;20111;-50
2023/01/08 03:23:34;;;;;;;1.92;1.40;;;20.40;44.20;;;;;;5031212;28;20116;-52
2023/01/08 03:26:02;;;;;;;2.38;1.33;;;20.40;44.20;;;;;;5030021;28;20439;-50
2023/01/08 03:28:33;;;;;;;1.90;1.27;;;20.40;44.20;;;;;;5031180;28;20345;-51
2023/01/08 03:31:01;;;;;;;2.13;1.33;;;20.40;44.20;;;;;;5030203;28;20030;-51
2023/01/08 03:33:29;;;;;;;1.60;1.20;;;20.40;44.10;;;;;;5027230;28;20051;-48
2023/01/08 03:35:58;;;;;;;1.80;1.40;;;20.40;44.10;;;;;;5030929;28;20022;-49
2023/01/08 03:38:32;;;;;;;1.63;1.15;;;20.40;44.00;;;;;;5030145;28;21904;-49
2023/01/08 03:41:06;;;;;;;2.33;1.13;;;20.40;43.90;;;;;;5030222;28;20033;-47
2023/01/08 03:43:31;;;;;;;1.90;1.25;;;20.40;43.90;;;;;;5013430;28;20038;-50
2023/01/08 03:46:01;;;;;;;3.50;1.30;;;20.40;43.80;;;;;;5030841;28;20029;-48
2023/01/08 03:48:31;;;;;;;1.48;1.10;;;20.40;43.80;;;;;;5029194;28;20029;-47
2023/01/08 03:50:57;;;;;;;2.47;1.33;;;20.40;43.80;;;;;;5030245;28;20033;-48
2023/01/08 03:53:22;;;;;;;1.88;1.13;;;20.40;43.70;;;;;;5030520;28;20027;-51
2023/01/08 03:55:48;;;;;;;2.10;1.20;;;20.40;43.70;;;;;;5029204;28;20457;-51
2023/01/08 03:58:14;;;;;;;2.40;1.73;;;20.40;43.70;;;;;;5028774;28;20033;-47
2023/01/08 04:00:40;;;;;;;2.90;1.50;;;20.40;43.70;;;;;;5031150;28;20034;-52
2023/01/08 04:03:06;;;;;;;2.13;1.00;;;20.40;43.70;;;;;;5028048;28;21704;-51
2023/01/08 04:05:32;;;;;;;1.83;1.10;;;20.40;43.70;;;;;;5030817;28;20034;-50
2023/01/08 04:07:57;;;;;;;1.92;0.98;;;20.40;43.70;;;;;;5027078;28;20045;-48
2023/01/08 04:10:24;;;;;;;1.95;1.20;;;20.40;43.60;;;;;;5030914;28;20017;-51
2023/01/08 04:12:50;;;;;;;3.03;1.23;;;20.40;43.60;;;;;;5027798;28;20053;-52
2023/01/08 04:15:16;;;;;;;1.70;1.00;;;20.40;43.60;;;;;;5032429;28;20053;-47
2023/01/08 04:17:42;;;;;;;2.88;1.02;;;20.40;43.60;;;;;;5010982;28;20034;-49
2023/01/08 04:20:09;;;;;;;1.20;0.90;;;20.40;43.60;;;;;;5029188;28;20041;-49
2023/01/08 04:22:34;;;;;;;1.23;0.85;;;20.40;43.60;;;;;;5028991;28;20116;-54
2023/01/08 04:25:00;;;;;;;2.10;1.33;;;20.50;43.60;;;;;;5021488;28;20113;-54
2023/01/08 04:27:26;;;;;;;1.25;0.98;;;20.40;43.60;;;;;;5024208;28;20533;-53
2023/01/08 04:29:52;;;;;;;2.67;1.10;;;20.50;43.60;;;;;;5027351;28;20033;-54
2023/01/08 04:32:19;;;;;;;1.98;1.10;;;20.50;43.60;;;;;;5030670;28;20030;-52
2023/01/08 04:34:44;;;;;;;2.53;1.20;;;20.40;43.60;;;;;;5029063;28;20079;-52
2023/01/08 04:37:10;;;;;;;1.42;1.17;;;20.50;43.60;;;;;;5030615;28;20025;-52
2023/01/08 04:39:36;;;;;;;1.85;0.90;;;20.50;43.60;;;;;;5030210;28;21676;-50
2023/01/08 04:42:02;;;;;;;2.10;1.10;;;20.50;43.60;;;;;;5029955;28;20506;-49
2023/01/08 04:44:28;;;;;;;2.42;1.13;;;20.40;43.60;;;;;;5026124;28;20018;-53
2023/01/08 04:46:54;;;;;;;2.05;0.95;;;20.40;43.50;;;;;;5030632;28;20025;-49
2023/01/08 04:49:19;;;;;;;4.03;1.27;;;20.50;43.50;;;;;;5027420;28;20480;-51
2023/01/08 04:51:45;;;;;;;2.13;0.90;;;20.50;43.50;;;;;;5028571;28;20060;-50
2023/01/08 04:54:11;;;;;;;1.17;0.85;;;20.50;43.50;;;;;;5028369;28;20333;-51
2023/01/08 04:56:37;;;;;;;1.65;0.82;;;20.50;43.50;;;;;;5027849;28;20049;-53
2023/01/08 04:59:03;;;;;;;2.15;1.00;;;20.40;43.40;;;;;;5030395;28;20033;-52
2023/01/08 05:01:29;;;;;;;1.63;0.90;;;20.50;43.50;;;;;;5029981;28;20042;-51
2023/01/08 05:03:57;;;;;;;2.08;1.08;;;20.40;43.40;;;;;;5029700;28;20034;-53
2023/01/08 05:06:24;;;;;;;2.22;1.05;;;20.40;43.40;;;;;;5027861;28;20021;-51
2023/01/08 05:08:50;;;;;;;1.70;0.65;;;20.40;43.40;;;;;;5027187;28;20029;-50
2023/01/08 05:11:16;;;;;;;2.05;0.85;;;20.40;43.40;;;;;;5013575;28;20171;-54
2023/01/08 05:13:41;;;;;;;1.52;0.80;;;20.40;43.40;;;;;;5030629;28;20029;-53
2023/01/08 05:16:07;;;;;;;1.73;1.00;;;20.50;43.40;;;;;;5028470;28;20045;-52
2023/01/08 05:18:33;;;;;;;1.55;0.80;;;20.40;43.40;;;;;;5025807;28;20025;-54
2023/01/08 05:21:01;;;;;;;1.52;0.80;;;20.40;43.40;;;;;;5028680;28;20065;-52
2023/01/08 05:23:28;;;;;;;1.50;0.70;;;20.40;43.40;;;;;;5026342;28;20030;-53
2023/01/08 05:25:58;;;;;;;1.38;0.95;;;20.50;43.40;;;;;;5029431;28;20120;-50
2023/01/08 05:28:25;;;;;;;2.63;1.02;;;20.40;43.40;;;;;;5030455;28;20095;-52
2023/01/08 05:30:51;;;;;;;1.73;0.80;;;20.40;43.40;;;;;;5027561;28;20110;-52
2023/01/08 05:33:17;;;;;;;1.17;0.60;;;20.40;43.30;;;;;;5029173;28;20114;-51
2023/01/08 05:35:43;;;;;;;1.92;0.80;;;20.40;43.30;;;;;;5028351;28;20017;-51
2023/01/08 05:38:09;;;;;;;1.92;1.05;;;20.40;43.30;;;;;;5012299;28;20114;-49
2023/01/08 05:40:34;;;;;;;1.88;0.60;;;20.40;44.00;;;;;;5012107;28;20480;-48
2023/01/08 05:43:01;;;;;;;1.23;0.70;;;20.40;43.30;;;;;;5029377;28;20380;-54
2023/01/08 05:45:27;;;;;;;1.27;0.73;;;20.40;43.30;;;;;;5029731;28;20025;-49
2023/01/08 05:47:53;;;;;;;1.67;0.75;;;20.40;43.30;;;;;;5027130;28;20076;-52
2023/01/08 05:50:19;;;;;;;1.33;0.60;;;20.40;43.30;;;;;;5027472;28;21860;-50
2023/01/08 05:52:45;;;;;;;1.17;0.80;;;20.40;43.30;;;;;;5011738;28;20060;-50
2023/01/08 05:55:11;;;;;;;1.15;0.60;;;20.40;43.30;;;;;;5027638;28;20034;-46
2023/01/08 05:57:37;;;;;;;1.38;0.80;;;20.40;43.30;;;;;;5031403;28;20036;-47
2023/01/08 06:00:07;;;;;;;1.30;0.70;;;20.40;43.30;;;;;;5032419;28;20041;-51
2023/01/08 06:02:37;;;;;;;1.60;0.73;;;20.40;43.30;;;;;;5029073;28;20030;-54
2023/01/08 06:05:03;;;;;;;1.40;0.60;;;20.40;43.30;;;;;;5016630;28;20368;-48
2023/01/08 06:07:29;;;;;;;1.45;0.68;;;20.40;43.30;;;;;;5032388;28;20082;-48
2023/01/08 06:09:55;;;;;;;1.88;1.10;;;20.40;43.30;;;;;;5032188;28;20029;-53
2023/01/08 06:12:21;;;;;;;1.30;0.52;;;20.40;43.30;;;;;;5031143;28;20056;-51
2023/01/08 06:14:47;;;;;;;1.42;0.95;;;20.40;43.20;;;;;;5029670;28;20041;-50
2023/01/08 06:17:14;;;;;;;1.55;0.68;;;20.40;43.20;;;;;;5030358;28;20029;-49
2023/01/08 06:19:40;;;;;;;2.20;0.70;;;20.40;43.20;;;;;;5029500;28;20045;-51
2023/01/08 06:22:06;;;;;;;2.70;0.70;;;20.40;43.20;;;;;;5033239;28;20095;-48
2023/01/08 06:24:32;;;;;;;1.15;0.68;;;20.40;43.20;;;;;;5030665;28;20021;-53
2023/01/08 06:26:58;;;;;;;1.52;0.85;;;20.40;43.20;;;;;;5033239;28;20021;-53
2023/01/08 06:29:24;;;;;;;1.50;0.70;;;20.40;43.10;;;;;;5028744;28;20499;-52
2023/01/08 06:31:49;;;;;;;1.20;0.70;;;20.40;43.10;;;;;;5032647;28;20029;-49
2023/01/08 06:34:15;;;;;;;1.00;0.55;;;20.40;43.10;;;;;;5030752;28;20025;-50
2023/01/08 06:36:41;;;;;;;1.15;0.70;;;20.40;43.00;;;;;;5031957;28;20095;-52
2023/01/08 06:39:08;;;;;;;1.38;0.60;;;20.40;43.00;;;;;;5032590;28;20467;-48
2023/01/08 06:41:34;;;;;;;1.35;0.60;;;20.40;42.90;;;;;;5030786;28;20041;-52
2023/01/08 06:44:00;;;;;;;0.80;0.60;;;20.40;42.90;;;;;;5031908;28;20044;-51
2023/01/08 06:46:26;;;;;;;1.33;0.60;;;20.40;42.80;;;;;;5032587;28;20021;-47
2023/01/08 06:48:51;;;;;;;1.08;0.65;;;20.30;42.70;;;;;;5031142;28;20033;-50
2023/01/08 06:51:17;;;;;;;0.85;0.63;;;20.40;42.70;;;;;;5030582;28;20033;-52
2023/01/08 06:53:43;;;;;;;1.50;0.68;;;20.40;42.70;;;;;;5029964;28;20021;-52
2023/01/08 06:56:09;;;;;;;1.10;0.60;;;20.40;42.70;;;;;;5031428;28;20025;-50
2023/01/08 06:58:37;;;;;;;1.00;0.70;;;20.40;42.60;;;;;;5032119;28;20040;-51
2023/01/08 07:01:03;;;;;;;0.98;0.60;;;20.40;42.60;;;;;;5032248;28;20052;-49
2023/01/08 07:03:29;;;;;;;1.23;0.50;;;20.40;42.60;;;;;;5028691;28;20025;-53
2023/01/08 07:05:55;;;;;;;1.90;0.50;;;20.30;42.50;;;;;;5025935;28;20031;-50
2023/01/08 07:08:22;;;;;;;1.10;0.50;;;20.40;42.50;;;;;;5029688;28;20041;-53
2023/01/08 07:10:48;;;;;;;0.98;0.50;;;20.40;42.50;;;;;;5030749;28;20029;-51
2023/01/08 07:13:14;;;;;;;0.88;0.47;;;20.30;42.40;;;;;;5031382;28;20051;-51
2023/01/08 07:15:40;;;;;;;1.00;0.60;;;20.30;42.40;;;;;;5031087;28;20037;-52
2023/01/08 07:18:11;;;;;;;1.20;0.60;;;20.40;42.40;;;;;;5028343;28;20075;-49
2023/01/08 07:20:37;;;;;;;1.25;0.60;;;20.40;42.30;;;;;;5026606;28;20037;-50
2023/01/08 07:23:06;;;;;;;0.85;0.50;;;20.40;42.30;;;;;;5029674;28;20057;-51
2023/01/08 07:25:32;;;;;;;1.05;0.57;;;20.40;42.30;;;;;;5027757;28;20057;-51
2023/01/08 07:27:59;;;;;;;0.57;0.50;;;20.40;42.20;;;;;;5024570;28;20056;-53
2023/01/08 07:30:25;;;;;;;0.80;0.40;;;20.40;42.20;;;;;;5019403;28;20053;-51
2023/01/08 07:32:51;;;;;;;1.98;0.75;;;20.40;42.10;;;;;;5020870;28;20041;-51
2023/01/08 07:35:17;;;;;;;1.33;0.63;;;20.30;42.00;;;;;;5028208;28;20025;-49
2023/01/08 07:37:43;;;;;;;0.93;0.60;;;20.30;42.00;;;;;;5026874;28;20030;-48
2023/01/08 07:40:10;;;;;;;1.67;0.60;;;20.30;41.90;;;;;;5025040;28;20044;-53
2023/01/08 07:42:37;;;;;;;0.80;0.60;;;20.40;41.90;;;;;;5028940;28;20111;-55
2023/01/08 07:45:04;;;;;;;1.60;0.60;;;20.40;41.90;;;;;;5026055;28;20030;-54
2023/01/08 07:47:29;;;;;;;1.15;0.47;;;20.30;41.80;;;;;;5022706;28;20377;-55
2023/01/08 07:49:55;;;;;;;1.73;0.60;;;20.30;41.80;;;;;;5025470;28;20036;-53
2023/01/08 07:52:21;;;;;;;2.25;0.80;;;20.30;41.80;;;;;;5026373;28;20030;-54
2023/01/08 07:54:47;;;;;;;1.60;0.70;;;20.30;41.80;;;;;;5025168;28;20040;-53
2023/01/08 07:57:13;;;;;;;2.13;0.77;;;20.40;41.80;;;;;;5029350;28;20033;-52
2023/01/08 07:59:39;;;;;;;2.72;0.70;;;20.30;41.70;;;;;;5027871;28;20037;-51
2023/01/08 08:02:04;;;;;;;1.17;0.50;;;20.30;41.60;;;;;;5028051;28;20021;-51
2023/01/08 08:04:30;;;;;;;1.33;0.50;;;20.30;41.60;;;;;;5008184;28;20029;-51
2023/01/08 08:06:56;;;;;;;2.35;0.80;;;20.30;41.50;;;;;;5027522;28;20025;-53
2023/01/08 08:09:22;;;;;;;3.08;0.85;;;20.30;41.50;;;;;;5023540;28;21566;-55
2023/01/08 08:11:48;;;;;;;1.27;0.60;;;20.30;41.50;;;;;;5027452;28;20037;-50
2023/01/08 08:14:14;;;;;;;3.80;0.73;;;20.30;41.40;;;;;;5023143;28;20042;-51
2023/01/08 08:16:39;;;;;;;2.58;1.17;;;20.30;41.30;;;;;;5022735;28;20025;-53
2023/01/08 08:19:05;;;;;;;2.33;0.90;;;20.30;41.30;;;;;;5022597;28;20034;-53
2023/01/08 08:21:31;;;;;;;2.08;0.75;;;20.30;41.30;;;;;;5021109;28;20044;-52
2023/01/08 08:23:58;;;;;;;2.28;0.90;;;20.30;41.20;;;;;;5019649;28;20048;-50
2023/01/08 08:26:24;;;;;;;3.25;0.90;;;20.30;41.30;;;;;;5019084;28;20026;-46
2023/01/08 08:28:50;;;;;;;3.00;1.00;;;20.30;41.40;;;;;;5014639;28;20398;-52
2023/01/08 08:31:15;;;;;;;3.13;1.25;;;20.40;41.60;;;;;;5023281;28;20088;-54
2023/01/08 08:33:41;;;;;;;6.40;1.30;;;20.40;41.80;;;;;;5021937;28;20060;-48
2023/01/08 08:36:08;;;;;;;4.70;1.27;;;20.30;41.90;;;;;;5030589;28;20030;-52
2023/01/08 08:38:36;;;;;;;3.85;1.35;;;20.40;42.10;;;;;;5015357;28;20033;-53
2023/01/08 08:41:03;;;;;;;3.35;0.80;;;20.50;42.20;;;;;;5030031;28;20060;-48
2023/01/08 08:43:35;;;;;;;4.40;1.17;;;20.50;42.20;;;;;;5032898;28;20369;-49
2023/01/08 08:46:01;;;;;;;5.68;1.40;;;20.50;42.20;;;;;;5033029;28;20037;-47
2023/01/08 08:48:27;;;;;;;3.08;1.30;;;20.60;42.20;;;;;;5031341;28;20025;-53
2023/01/08 08:50:53;;;;;;;3.03;1.10;;;20.60;42.10;;;;;;5033347;28;20025;-49
2023/01/08 08:53:19;;;;;;;3.63;1.42;;;20.70;42.10;;;;;;5032908;28;20021;-51
2023/01/08 08:55:44;;;;;;;4.25;1.45;;;20.80;42.10;;;;;;5031273;28;20436;-49
2023/01/08 08:58:12;;;;;;;4.82;1.70;;;20.80;42.10;;;;;;5015050;28;20033;-52
2023/01/08 09:00:39;;;;;;;6.20;2.08;;;20.80;42.10;;;;;;5030799;28;20048;-51
2023/01/08 09:03:05;;;;;;;8.18;2.17;;;20.90;42.10;;;;;;5032996;28;20056;-53
2023/01/08 09:05:35;;;;;;;4.35;1.70;;;21.00;42.10;;;;;;5033185;28;20029;-49
2023/01/08 09:08:01;;;;;;;5.50;1.90;;;21.00;42.10;;;;;;5031506;28;20028;-52
2023/01/08 09:10:27;;;;;;;5.85;2.28;;;21.10;42.10;;;;;;5031887;28;20376;-52
2023/01/08 09:12:53;;;;;;;8.02;1.95;;;21.20;42.00;;;;;;5033405;28;20025;-53
2023/01/08 09:15:19;;;;;;;6.22;2.30;;;21.20;42.00;;;;;;5033104;28;20072;-55
2023/01/08 09:17:50;;;;;;;5.07;1.70;;;21.20;41.80;;;;;;5033371;28;20056;-55
2023/01/08 09:20:16;;;;;;;4.28;1.70;;;21.30;41.80;;;;;;5029744;28;20037;-55
2023/01/08 09:22:42;;;;;;;4.38;1.42;;;21.30;41.60;;;;;;5032192;28;20056;-54
2023/01/08 09:25:08;;;;;;;6.53;1.90;;;21.40;41.50;;;;;;5032435;28;20025;-54
2023/01/08 09:27:34;;;;;;;4.25;1.35;;;21.40;41.40;;;;;;5032353;28;20029;-50
2023/01/08 09:30:00;;;;;;;4.00;1.42;;;21.50;41.30;;;;;;5032427;28;20511;-57
2023/01/08 09:32:26;;;;;;;2.72;1.35;;;21.50;41.20;;;;;;5038500;28;20052;-55
2023/01/08 09:34:51;;;;;;;4.38;1.65;;;21.60;41.10;;;;;;5036116;28;20033;-54
2023/01/08 09:37:17;;;;;;;3.45;1.30;;;21.60;41.00;;;;;;5035521;28;20476;-54
2023/01/08 09:39:43;;;;;;;3.90;1.58;;;21.70;40.90;;;;;;5037092;28;20034;-57
2023/01/08 09:42:18;;;;;;;3.47;1.10;;;21.70;40.70;;;;;;5036596;28;20040;-50
2023/01/08 09:44:46;;;;;;;3.13;1.00;;;21.80;41.30;;;;;;5038931;28;20057;-53
2023/01/08 09:47:37;;;;;;;2.17;0.85;;;21.80;40.50;;;;;;5046368;28;20033;-50
2023/01/08 09:50:10;;;;;;;3.85;1.13;;;21.80;40.40;;;;;;5040161;28;20121;-51
2023/01/08 09:52:37;;;;;;;3.05;1.08;;;21.80;40.30;;;;;;5041913;28;20124;-46
2023/01/08 09:55:12;;;;;;;2.60;0.90;;;21.90;40.30;;;;;;5040199;28;20021;-51
2023/01/08 09:57:38;;;;;;;2.65;1.05;;;21.90;40.20;;;;;;5045499;28;20039;-48
2023/01/08 10:00:14;;;;;;;2.22;0.90;;;21.90;40.20;;;;;;5042026;28;20042;-49
2023/01/08 10:02:40;;;;;;;2.67;1.17;;;21.90;40.10;;;;;;5034024;28;20080;-49
2023/01/08 10:05:12;;;;;;;2.67;0.90;;;22.00;40.00;;;;;;5036113;28;20072;-50
2023/01/08 10:07:39;;;;;;;6.50;1.20;;;22.00;40.00;;;;;;5032580;28;20461;-47
2023/01/08 10:10:14;;;;;;;2.65;1.00;;;22.00;39.90;;;;;;5035016;28;20437;-51
2023/01/08 10:12:42;;;;;;;2.97;0.93;;;22.00;39.80;;;;;;5035240;28;20040;-49
2023/01/08 10:15:13;;;;;;;2.38;0.90;;;22.00;39.80;;;;;;5035336;28;20152;-51
2023/01/08 10:17:54;;;;;;;4.20;1.08;;;22.00;39.70;;;;;;5017095;28;20041;-47
2023/01/08 10:20:22;;;;;;;2.72;0.90;;;22.00;39.70;;;;;;5034442;28;20103;-50
2023/01/08 10:22:53;;;;;;;2.67;1.10;;;22.00;39.60;;;;;;5035435;28;20033;-54
2023/01/08 10:25:24;;;;;;;4.20;1.10;;;22.00;39.60;;;;;;5033870;28;20449;-49
2023/01/08 10:27:59;;;;;;;2.85;1.00;;;22.00;39.60;;;;;;5018179;28;20182;-54
2023/01/08 10:30:36;;;;;;;2.35;0.88;;;22.10;39.60;;;;;;5025354;28;20029;-51
2023/01/08 10:33:08;;;;;;;4.60;1.40;;;22.00;40.10;;;;;;5028508;28;20040;-49
2023/01/08 10:35:39;;;;;;;2.70;1.20;;;22.10;39.50;;;;;;5034343;28;20026;-49
2023/01/08 10:38:05;;;;;;;1.63;0.70;;;22.10;39.50;;;;;;5032244;28;20049;-52
2023/01/08 10:40:43;;;;;;;3.45;1.02;;;22.10;39.50;;;;;;5037162;28;20360;-49
2023/01/08 10:43:15;;;;;;;8.55;3.03;;;22.10;39.50;;;;;;5033872;28;20548;-51
2023/01/08 10:45:45;;;;;;;9.85;3.97;;;22.10;40.10;;;;;;5034895;28;20105;-47
2023/01/08 10:48:17;;;;;;;13.75;4.85;;;22.10;41.00;;;;;;5034399;28;20116;-48
2023/01/08 10:50:44;;;;;;;10.85;4.60;;;22.10;42.20;;;;;;5033469;28;20033;-53
2023/01/08 10:53:27;;;;;;;15.65;6.40;;;22.10;43.20;;;;;;5033736;28;20030;-47
2023/01/08 10:56:04;;;;;;;21.45;8.50;;;22.10;44.00;;;;;;5036259;28;20029;-51
2023/01/08 10:58:40;;;;;;;21.88;8.93;;;22.20;45.10;;;;;;5033020;28;20040;-51
2023/01/08 11:01:27;;;;;;;25.23;9.32;;;22.20;45.60;;;;;;5031610;28;20029;-59
2023/01/08 11:04:03;;;;;;;23.05;8.57;;;22.20;46.10;;;;;;5031625;28;20036;-53
2023/01/08 11:06:32;;;;;;;21.40;7.55;;;22.20;46.40;;;;;;5034917;28;20334;-54
2023/01/08 11:09:20;;;;;;;16.88;8.07;;;22.20;46.90;;;;;;5034338;28;20100;-51
2023/01/08 11:11:47;;;;;;;16.85;7.85;;;22.20;46.90;;;;;;5033981;28;20365;-52
2023/01/08 11:14:25;;;;;;;18.00;6.63;;;22.30;46.90;;;;;;5033628;28;20046;-47
2023/01/08 11:16:52;;;;;;;10.65;5.57;;;22.30;46.90;;;;;;5033763;28;20033;-51
2023/01/08 11:19:38;;;;;;;13.20;6.45;;;22.30;46.60;;;;;;5032892;28;20112;-51
2023/01/08 11:22:27;;;;;;;13.52;6.43;;;22.30;46.50;;;;;;5033909;28;20364;-52
2023/01/08 11:24:53;;;;;;;15.10;7.00;;;22.30;46.60;;;;;;5033191;28;20039;-51
2023/01/08 11:27:33;;;;;;;11.25;5.43;;;22.30;46.60;;;;;;5034056;28;20025;-50
2023/01/08 11:29:59;;;;;;;13.52;5.32;;;22.30;46.30;;;;;;5032295;28;20099;-49
2023/01/08 11:32:40;;;;;;;10.10;4.75;;;22.30;46.30;;;;;;5027717;28;20436;-53
2023/01/08 11:35:40;;;;;;;8.20;3.97;;;22.30;46.00;;;;;;5033209;28;20128;-48
2023/01/08 11:38:10;;;;;;;9.23;4.07;;;22.30;45.40;;;;;;4980090;28;20033;-51
2023/01/08 11:40:42;;;;;;;9.57;3.75;;;22.30;45.00;;;;;;5033554;28;20733;-49
2023/01/08 11:43:30;;;;;;;10.07;3.42;;;22.30;44.60;;;;;;5029225;28;20018;-49
2023/01/08 11:46:16;;;;;;;7.13;3.10;;;22.30;44.30;;;;;;5023923;28;20025;-52
2023/01/08 11:49:20;;;;;;;9.15;3.40;;;22.30;44.00;;;;;;5026190;28;20033;-51
2023/01/08 11:52:09;;;;;;;7.40;2.80;;;22.30;43.80;;;;;;5018179;28;20037;-48
2023/01/08 11:54:53;;;;;;;7.13;2.58;;;22.30;43.60;;;;;;5009218;28;20125;-52
2023/01/08 11:57:41;;;;;;;6.72;2.97;;;22.30;43.40;;;;;;5023746;28;20104;-50
2023/01/08 12:00:25;;;;;;;4.90;2.35;;;22.30;43.20;;;;;;5020317;28;20407;-48
2023/01/08 12:03:14;;;;;;;5.88;2.58;;;22.20;43.00;;;;;;5033775;28;20029;-50
2023/01/08 12:05:45;;;;;;;7.43;2.63;;;22.20;42.90;;;;;;5017910;28;20124;-48
2023/01/08 12:08:47;;;;;;;6.40;2.15;;;22.20;42.80;;;;;;5032968;28;20413;-53
2023/01/08 12:11:18;;;;;;;4.45;2.03;;;22.20;42.70;;;;;;5023289;28;20044;-47
2023/01/08 12:14:08;;;;;;;6.72;2.42;;;22.20;42.60;;;;;;5023718;28;20029;-48
2023/01/08 12:16:59;;;;;;;5.20;2.13;;;22.20;42.60;;;;;;4995641;28;20461;-48
2023/01/08 12:19:43;;;;;;;5.07;2.20;;;22.20;42.60;;;;;;4993662;28;20030;-50
2023/01/08 12:22:31;;;;;;;5.75;2.33;;;22.20;42.60;;;;;;5001989;28;20369;-52
2023/01/08 12:25:25;;;;;;;6.00;1.83;;;22.20;42.70;;;;;;4989812;28;20072;-52
2023/01/08 12:28:28;;;;;;;5.47;1.77;;;22.20;42.60;;;;;;4991230;28;20035;-52
2023/01/08 12:31:06;;;;;;;5.90;2.00;;;22.20;42.60;;;;;;4988083;28;20062;-52
2023/01/08 12:33:52;;;;;;;4.05;1.58;;;22.20;42.60;;;;;;4991409;28;20037;-55
2023/01/08 12:36:43;;;;;;;3.72;1.85;;;22.20;42.50;;;;;;4984675;28;20034;-50
2023/01/08 12:39:19;;;;;;;6.13;2.13;;;22.20;42.50;;;;;;4984504;28;20042;-52
2023/01/08 12:41:52;;;;;;;3.30;1.45;;;22.20;42.50;;;;;;4983517;28;20068;-55
2023/01/08 12:44:25;;;;;;;4.10;1.75;;;22.10;42.40;;;;;;4988695;28;20030;-49
2023/01/08 12:46:57;;;;;;;4.90;1.70;;;22.10;42.40;;;;;;4988893;28;20401;-55
2023/01/08 12:49:35;;;;;;;4.78;1.70;;;22.10;42.40;;;;;;4987559;28;20015;-57
2023/01/08 12:52:05;;;;;;;4.47;1.67;;;22.10;42.90;;;;;;4989799;28;20038;-54
2023/01/08 12:54:50;;;;;;;4.32;1.38;;;22.10;42.20;;;;;;4990028;28;20026;-52
2023/01/08 12:57:43;;;;;;;4.15;1.40;;;22.10;42.20;;;;;;4989610;28;20447;-56
2023/01/08 13:00:15;;;;;;;5.28;1.23;;;22.10;42.20;;;;;;4983034;28;20058;-57
2023/01/08 13:02:42;;;;;;;2.67;1.20;;;22.10;42.20;;;;;;4989710;28;20159;-54